< < Back
Terminal Aerodrome Forecast


Current Version              Previous Versions:   1  2  3  4  5  6  7  8  9  

Terminal Aerodrome Forecast

190
FTUS44 KBMX 220500
TAFANB
TAF
KANB 220534Z 2206/2306 06006KT P6SM OVC012
     FM220730 06006KT 6SM BR OVC009=



Latest METAR

006
SAUS70 KWBC 222000 RRA
MTRANB
METAR KANB 221953Z AUTO 10007KT 10SM OVC007 11/08 A2986 RMK AO2 SLP115
T01060083


USA.gov is the U.S. government's official web portal to all federal, state and local government web resources and services.